Linwood Park, Ohio
Current Conditions -  °F | °C
As of 7:53 PM on Friday 28 Nov 2014 (Local Time) from KLPR Reporting Station
Few Clouds Few Clouds  
Wind Chill: 16°   Ceiling: Unl
Heat Index: 25°   Visibility: 9mi
Dew Point: 21°   Wind: 8mph
Humidity: 85%   Direction: 170°S
Pressure: 30.17"   Gusts: NA
Location:  41.3884°N, 82.3643°W
Report Text: KLPR 290053Z AUTO 17007KT 9SM FEW120 M04/M06 A3017 RMK AO2 SLP229 T10391061 TSNO
Loading
Personal Weather Stations






























Interactive Weather Map New forecast layout! Learn more

10-Day Weather Forecast

Advertisements
Track Severe Weather on mobile